sensor_id;sensor_type;location;lat;lon;timestamp;P1;durP1;ratioP1;P2;durP2;ratioP2
4375;SDS011;2202;50.866;12.750;2022-12-07T00:00:18;29.80;;;17.50;;
4375;SDS011;2202;50.866;12.750;2022-12-07T00:02:45;32.00;;;18.03;;
4375;SDS011;2202;50.866;12.750;2022-12-07T00:05:12;33.60;;;19.30;;
4375;SDS011;2202;50.866;12.750;2022-12-07T00:07:39;37.03;;;18.63;;
4375;SDS011;2202;50.866;12.750;2022-12-07T00:10:06;32.40;;;19.03;;
4375;SDS011;2202;50.866;12.750;2022-12-07T00:12:35;41.73;;;18.83;;
4375;SDS011;2202;50.866;12.750;2022-12-07T00:15:02;33.80;;;18.57;;
4375;SDS011;2202;50.866;12.750;2022-12-07T00:17:29;27.57;;;17.60;;
4375;SDS011;2202;50.866;12.750;2022-12-07T00:19:56;34.37;;;18.70;;
4375;SDS011;2202;50.866;12.750;2022-12-07T00:22:23;29.27;;;18.60;;
4375;SDS011;2202;50.866;12.750;2022-12-07T00:24:50;35.03;;;18.00;;
4375;SDS011;2202;50.866;12.750;2022-12-07T00:27:17;27.17;;;15.73;;
4375;SDS011;2202;50.866;12.750;2022-12-07T00:29:45;30.40;;;17.07;;
4375;SDS011;2202;50.866;12.750;2022-12-07T00:32:11;31.97;;;18.30;;
4375;SDS011;2202;50.866;12.750;2022-12-07T00:34:38;30.63;;;17.47;;
4375;SDS011;2202;50.866;12.750;2022-12-07T00:37:05;30.53;;;16.30;;
4375;SDS011;2202;50.866;12.750;2022-12-07T00:39:32;34.10;;;17.83;;
4375;SDS011;2202;50.866;12.750;2022-12-07T00:41:59;33.90;;;18.90;;
4375;SDS011;2202;50.866;12.750;2022-12-07T00:44:26;32.47;;;17.57;;
4375;SDS011;2202;50.866;12.750;2022-12-07T00:46:54;29.53;;;17.10;;
4375;SDS011;2202;50.866;12.750;2022-12-07T00:49:21;30.60;;;16.20;;
4375;SDS011;2202;50.866;12.750;2022-12-07T00:51:48;30.13;;;16.40;;
4375;SDS011;2202;50.866;12.750;2022-12-07T00:54:15;30.60;;;17.23;;
4375;SDS011;2202;50.866;12.750;2022-12-07T00:56:42;35.60;;;18.43;;
4375;SDS011;2202;50.866;12.750;2022-12-07T00:59:10;31.73;;;17.43;;
4375;SDS011;2202;50.866;12.750;2022-12-07T01:01:39;30.43;;;17.53;;
4375;SDS011;2202;50.866;12.750;2022-12-07T01:04:07;27.80;;;16.33;;
4375;SDS011;2202;50.866;12.750;2022-12-07T01:06:34;25.93;;;15.77;;
4375;SDS011;2202;50.866;12.750;2022-12-07T01:09:01;27.50;;;16.13;;
4375;SDS011;2202;50.866;12.750;2022-12-07T01:11:30;28.93;;;16.83;;
4375;SDS011;2202;50.866;12.750;2022-12-07T01:13:57;32.07;;;16.57;;
4375;SDS011;2202;50.866;12.750;2022-12-07T01:16:26;28.70;;;16.70;;
4375;SDS011;2202;50.866;12.750;2022-12-07T01:18:55;30.13;;;17.27;;
4375;SDS011;2202;50.866;12.750;2022-12-07T01:21:25;27.63;;;15.20;;
4375;SDS011;2202;50.866;12.750;2022-12-07T01:23:54;31.07;;;17.07;;
4375;SDS011;2202;50.866;12.750;2022-12-07T01:26:23;29.13;;;15.10;;
4375;SDS011;2202;50.866;12.750;2022-12-07T01:28:51;30.90;;;17.47;;
4375;SDS011;2202;50.866;12.750;2022-12-07T01:31:20;31.63;;;16.40;;
4375;SDS011;2202;50.866;12.750;2022-12-07T01:33:50;27.83;;;17.90;;
4375;SDS011;2202;50.866;12.750;2022-12-07T01:36:18;26.60;;;14.17;;
4375;SDS011;2202;50.866;12.750;2022-12-07T01:38:49;27.87;;;15.00;;
4375;SDS011;2202;50.866;12.750;2022-12-07T01:41:17;30.67;;;17.60;;
4375;SDS011;2202;50.866;12.750;2022-12-07T01:46:37;29.10;;;17.90;;
4375;SDS011;2202;50.866;12.750;2022-12-07T01:49:04;36.17;;;17.40;;
4375;SDS011;2202;50.866;12.750;2022-12-07T01:51:32;28.57;;;17.10;;
4375;SDS011;2202;50.866;12.750;2022-12-07T01:54:01;30.57;;;17.77;;
4375;SDS011;2202;50.866;12.750;2022-12-07T01:56:28;29.20;;;16.90;;
4375;SDS011;2202;50.866;12.750;2022-12-07T01:58:57;27.47;;;15.27;;
4375;SDS011;2202;50.866;12.750;2022-12-07T02:01:26;38.27;;;17.40;;
4375;SDS011;2202;50.866;12.750;2022-12-07T02:03:53;30.87;;;16.03;;
4375;SDS011;2202;50.866;12.750;2022-12-07T02:06:20;28.10;;;17.17;;
4375;SDS011;2202;50.866;12.750;2022-12-07T02:08:50;26.00;;;15.77;;
4375;SDS011;2202;50.866;12.750;2022-12-07T02:11:19;30.67;;;15.87;;
4375;SDS011;2202;50.866;12.750;2022-12-07T02:13:47;29.80;;;17.10;;
4375;SDS011;2202;50.866;12.750;2022-12-07T02:16:21;25.47;;;13.80;;
4375;SDS011;2202;50.866;12.750;2022-12-07T02:18:58;26.43;;;15.23;;
4375;SDS011;2202;50.866;12.750;2022-12-07T02:21:40;23.40;;;14.17;;
4375;SDS011;2202;50.866;12.750;2022-12-07T02:24:14;25.63;;;15.00;;
4375;SDS011;2202;50.866;12.750;2022-12-07T02:27:09;24.20;;;14.00;;
4375;SDS011;2202;50.866;12.750;2022-12-07T02:29:49;25.03;;;15.10;;
4375;SDS011;2202;50.866;12.750;2022-12-07T02:32:23;25.30;;;14.47;;
4375;SDS011;2202;50.866;12.750;2022-12-07T02:34:55;20.37;;;12.53;;
4375;SDS011;2202;50.866;12.750;2022-12-07T02:37:32;20.53;;;12.30;;
4375;SDS011;2202;50.866;12.750;2022-12-07T02:40:04;23.17;;;14.17;;
4375;SDS011;2202;50.866;12.750;2022-12-07T02:42:36;26.07;;;14.80;;
4375;SDS011;2202;50.866;12.750;2022-12-07T02:45:08;23.37;;;12.63;;
4375;SDS011;2202;50.866;12.750;2022-12-07T02:47:39;19.50;;;10.83;;
4375;SDS011;2202;50.866;12.750;2022-12-07T02:50:07;18.03;;;11.87;;
4375;SDS011;2202;50.866;12.750;2022-12-07T02:52:35;24.53;;;12.80;;
4375;SDS011;2202;50.866;12.750;2022-12-07T02:55:01;21.77;;;12.90;;
4375;SDS011;2202;50.866;12.750;2022-12-07T02:57:34;18.07;;;11.10;;
4375;SDS011;2202;50.866;12.750;2022-12-07T03:00:11;23.97;;;11.80;;
4375;SDS011;2202;50.866;12.750;2022-12-07T03:02:45;20.20;;;10.60;;
4375;SDS011;2202;50.866;12.750;2022-12-07T03:05:23;19.13;;;11.00;;
4375;SDS011;2202;50.866;12.750;2022-12-07T03:08:04;16.40;;;10.30;;
4375;SDS011;2202;50.866;12.750;2022-12-07T03:10:40;16.47;;;9.57;;
4375;SDS011;2202;50.866;12.750;2022-12-07T03:13:16;14.37;;;8.40;;
4375;SDS011;2202;50.866;12.750;2022-12-07T03:15:52;17.20;;;10.73;;
4375;SDS011;2202;50.866;12.750;2022-12-07T03:18:24;12.87;;;8.40;;
4375;SDS011;2202;50.866;12.750;2022-12-07T03:20:57;14.07;;;8.40;;
4375;SDS011;2202;50.866;12.750;2022-12-07T03:23:27;13.47;;;8.73;;
4375;SDS011;2202;50.866;12.750;2022-12-07T03:25:58;18.67;;;10.50;;
4375;SDS011;2202;50.866;12.750;2022-12-07T03:28:27;15.53;;;8.07;;
4375;SDS011;2202;50.866;12.750;2022-12-07T03:30:59;12.30;;;7.57;;
4375;SDS011;2202;50.866;12.750;2022-12-07T03:33:31;14.97;;;8.37;;
4375;SDS011;2202;50.866;12.750;2022-12-07T03:36:02;16.90;;;8.60;;
4375;SDS011;2202;50.866;12.750;2022-12-07T03:38:36;11.60;;;7.93;;
4375;SDS011;2202;50.866;12.750;2022-12-07T03:41:07;14.40;;;9.00;;
4375;SDS011;2202;50.866;12.750;2022-12-07T03:43:37;14.80;;;9.43;;
4375;SDS011;2202;50.866;12.750;2022-12-07T03:46:09;11.70;;;7.83;;
4375;SDS011;2202;50.866;12.750;2022-12-07T03:48:46;14.63;;;8.67;;
4375;SDS011;2202;50.866;12.750;2022-12-07T03:51:21;21.70;;;8.90;;
4375;SDS011;2202;50.866;12.750;2022-12-07T03:53:53;14.30;;;7.53;;
4375;SDS011;2202;50.866;12.750;2022-12-07T03:56:25;12.97;;;8.10;;
4375;SDS011;2202;50.866;12.750;2022-12-07T03:58:53;13.27;;;8.07;;
4375;SDS011;2202;50.866;12.750;2022-12-07T04:01:23;14.20;;;7.93;;
4375;SDS011;2202;50.866;12.750;2022-12-07T04:03:50;11.37;;;6.97;;
4375;SDS011;2202;50.866;12.750;2022-12-07T04:06:17;13.37;;;7.43;;
4375;SDS011;2202;50.866;12.750;2022-12-07T04:08:44;12.90;;;7.57;;
4375;SDS011;2202;50.866;12.750;2022-12-07T04:11:11;12.37;;;7.40;;
4375;SDS011;2202;50.866;12.750;2022-12-07T04:13:38;11.07;;;6.73;;
4375;SDS011;2202;50.866;12.750;2022-12-07T04:16:18;9.67;;;6.83;;
4375;SDS011;2202;50.866;12.750;2022-12-07T04:18:46;12.30;;;7.43;;
4375;SDS011;2202;50.866;12.750;2022-12-07T04:21:13;12.40;;;7.50;;
4375;SDS011;2202;50.866;12.750;2022-12-07T04:23:40;11.93;;;6.93;;
4375;SDS011;2202;50.866;12.750;2022-12-07T04:26:07;12.10;;;7.10;;
4375;SDS011;2202;50.866;12.750;2022-12-07T04:28:34;11.80;;;7.63;;
4375;SDS011;2202;50.866;12.750;2022-12-07T04:31:01;12.50;;;7.87;;
4375;SDS011;2202;50.866;12.750;2022-12-07T04:33:27;12.70;;;7.00;;
4375;SDS011;2202;50.866;12.750;2022-12-07T04:35:56;12.13;;;7.73;;
4375;SDS011;2202;50.866;12.750;2022-12-07T04:38:22;10.87;;;7.03;;
4375;SDS011;2202;50.866;12.750;2022-12-07T04:40:49;13.53;;;6.87;;
4375;SDS011;2202;50.866;12.750;2022-12-07T04:43:16;11.33;;;7.13;;
4375;SDS011;2202;50.866;12.750;2022-12-07T04:45:45;12.23;;;7.43;;
4375;SDS011;2202;50.866;12.750;2022-12-07T04:48:12;10.90;;;7.20;;
4375;SDS011;2202;50.866;12.750;2022-12-07T04:50:39;13.87;;;7.37;;
4375;SDS011;2202;50.866;12.750;2022-12-07T04:53:07;12.30;;;8.30;;
4375;SDS011;2202;50.866;12.750;2022-12-07T04:55:34;13.60;;;7.80;;
4375;SDS011;2202;50.866;12.750;2022-12-07T04:58:02;9.60;;;6.40;;
4375;SDS011;2202;50.866;12.750;2022-12-07T05:00:28;11.70;;;7.13;;
4375;SDS011;2202;50.866;12.750;2022-12-07T05:02:55;11.70;;;7.33;;
4375;SDS011;2202;50.866;12.750;2022-12-07T05:05:22;12.67;;;7.37;;
4375;SDS011;2202;50.866;12.750;2022-12-07T05:07:49;11.60;;;6.77;;
4375;SDS011;2202;50.866;12.750;2022-12-07T05:10:17;11.47;;;7.27;;
4375;SDS011;2202;50.866;12.750;2022-12-07T05:12:44;11.50;;;6.57;;
4375;SDS011;2202;50.866;12.750;2022-12-07T05:15:11;10.90;;;7.13;;
4375;SDS011;2202;50.866;12.750;2022-12-07T05:17:38;13.67;;;7.83;;
4375;SDS011;2202;50.866;12.750;2022-12-07T05:20:06;10.13;;;6.20;;
4375;SDS011;2202;50.866;12.750;2022-12-07T05:22:33;11.73;;;7.77;;
4375;SDS011;2202;50.866;12.750;2022-12-07T05:25:00;11.13;;;7.10;;
4375;SDS011;2202;50.866;12.750;2022-12-07T05:27:29;12.10;;;8.07;;
4375;SDS011;2202;50.866;12.750;2022-12-07T05:29:56;12.30;;;6.80;;
4375;SDS011;2202;50.866;12.750;2022-12-07T05:32:22;12.47;;;7.30;;
4375;SDS011;2202;50.866;12.750;2022-12-07T05:34:49;12.77;;;7.40;;
4375;SDS011;2202;50.866;12.750;2022-12-07T05:37:16;11.70;;;7.13;;
4375;SDS011;2202;50.866;12.750;2022-12-07T05:39:43;13.80;;;7.47;;
4375;SDS011;2202;50.866;12.750;2022-12-07T05:42:10;12.90;;;7.97;;
4375;SDS011;2202;50.866;12.750;2022-12-07T05:44:42;12.30;;;8.00;;
4375;SDS011;2202;50.866;12.750;2022-12-07T05:47:10;14.47;;;9.13;;
4375;SDS011;2202;50.866;12.750;2022-12-07T05:49:38;15.20;;;9.90;;
4375;SDS011;2202;50.866;12.750;2022-12-07T05:52:05;14.40;;;8.40;;
4375;SDS011;2202;50.866;12.750;2022-12-07T05:54:32;15.27;;;8.97;;
4375;SDS011;2202;50.866;12.750;2022-12-07T05:56:59;16.37;;;9.17;;
4375;SDS011;2202;50.866;12.750;2022-12-07T05:59:26;17.83;;;9.83;;
4375;SDS011;2202;50.866;12.750;2022-12-07T06:01:54;17.17;;;8.63;;
4375;SDS011;2202;50.866;12.750;2022-12-07T06:04:22;19.93;;;10.13;;
4375;SDS011;2202;50.866;12.750;2022-12-07T06:06:50;14.73;;;9.40;;
4375;SDS011;2202;50.866;12.750;2022-12-07T06:09:17;20.77;;;11.27;;
4375;SDS011;2202;50.866;12.750;2022-12-07T06:11:44;17.97;;;11.30;;
4375;SDS011;2202;50.866;12.750;2022-12-07T06:14:29;19.53;;;10.97;;
4375;SDS011;2202;50.866;12.750;2022-12-07T06:16:57;19.47;;;12.00;;
4375;SDS011;2202;50.866;12.750;2022-12-07T06:19:25;19.53;;;11.70;;
4375;SDS011;2202;50.866;12.750;2022-12-07T06:21:52;18.40;;;11.50;;
4375;SDS011;2202;50.866;12.750;2022-12-07T06:24:19;19.00;;;12.57;;
4375;SDS011;2202;50.866;12.750;2022-12-07T06:26:46;21.20;;;12.90;;
4375;SDS011;2202;50.866;12.750;2022-12-07T06:29:13;17.10;;;10.70;;
4375;SDS011;2202;50.866;12.750;2022-12-07T06:31:40;20.23;;;9.90;;
4375;SDS011;2202;50.866;12.750;2022-12-07T06:34:10;20.07;;;11.80;;
4375;SDS011;2202;50.866;12.750;2022-12-07T06:36:39;20.47;;;11.60;;
4375;SDS011;2202;50.866;12.750;2022-12-07T06:39:06;18.70;;;11.40;;
4375;SDS011;2202;50.866;12.750;2022-12-07T06:41:34;23.90;;;11.10;;
4375;SDS011;2202;50.866;12.750;2022-12-07T06:44:01;19.40;;;12.07;;
4375;SDS011;2202;50.866;12.750;2022-12-07T06:46:27;19.87;;;11.67;;
4375;SDS011;2202;50.866;12.750;2022-12-07T06:48:54;18.60;;;11.43;;
4375;SDS011;2202;50.866;12.750;2022-12-07T06:51:23;18.43;;;10.53;;
4375;SDS011;2202;50.866;12.750;2022-12-07T06:53:49;21.07;;;11.10;;
4375;SDS011;2202;50.866;12.750;2022-12-07T06:56:16;23.10;;;13.10;;
4375;SDS011;2202;50.866;12.750;2022-12-07T06:58:43;23.13;;;13.57;;
4375;SDS011;2202;50.866;12.750;2022-12-07T07:01:10;26.90;;;16.23;;
4375;SDS011;2202;50.866;12.750;2022-12-07T07:03:38;28.20;;;16.17;;
4375;SDS011;2202;50.866;12.750;2022-12-07T07:06:05;17.60;;;10.50;;
4375;SDS011;2202;50.866;12.750;2022-12-07T07:08:34;23.53;;;12.10;;
4375;SDS011;2202;50.866;12.750;2022-12-07T07:11:01;24.00;;;13.27;;
4375;SDS011;2202;50.866;12.750;2022-12-07T07:13:28;20.80;;;12.60;;
4375;SDS011;2202;50.866;12.750;2022-12-07T07:15:55;22.23;;;13.70;;
4375;SDS011;2202;50.866;12.750;2022-12-07T07:18:22;20.67;;;11.43;;
4375;SDS011;2202;50.866;12.750;2022-12-07T07:20:49;28.30;;;13.63;;
4375;SDS011;2202;50.866;12.750;2022-12-07T07:23:16;19.40;;;12.17;;
4375;SDS011;2202;50.866;12.750;2022-12-07T07:25:45;26.37;;;11.80;;
4375;SDS011;2202;50.866;12.750;2022-12-07T07:28:12;20.37;;;12.30;;
4375;SDS011;2202;50.866;12.750;2022-12-07T07:30:39;20.60;;;14.33;;
4375;SDS011;2202;50.866;12.750;2022-12-07T07:33:07;20.97;;;13.10;;
4375;SDS011;2202;50.866;12.750;2022-12-07T07:35:35;20.00;;;13.00;;
4375;SDS011;2202;50.866;12.750;2022-12-07T07:38:02;20.17;;;11.63;;
4375;SDS011;2202;50.866;12.750;2022-12-07T07:40:29;22.83;;;13.00;;
4375;SDS011;2202;50.866;12.750;2022-12-07T07:42:58;21.70;;;12.40;;
4375;SDS011;2202;50.866;12.750;2022-12-07T07:45:25;22.47;;;14.00;;
4375;SDS011;2202;50.866;12.750;2022-12-07T07:47:53;24.07;;;13.70;;
4375;SDS011;2202;50.866;12.750;2022-12-07T07:50:20;21.47;;;12.93;;
4375;SDS011;2202;50.866;12.750;2022-12-07T07:52:48;24.63;;;12.17;;
4375;SDS011;2202;50.866;12.750;2022-12-07T07:55:15;24.40;;;14.03;;
4375;SDS011;2202;50.866;12.750;2022-12-07T07:57:42;22.00;;;13.17;;
4375;SDS011;2202;50.866;12.750;2022-12-07T08:00:11;20.50;;;12.43;;
4375;SDS011;2202;50.866;12.750;2022-12-07T08:02:39;25.17;;;14.40;;
4375;SDS011;2202;50.866;12.750;2022-12-07T08:05:08;21.10;;;11.93;;
4375;SDS011;2202;50.866;12.750;2022-12-07T08:07:35;25.60;;;14.90;;
4375;SDS011;2202;50.866;12.750;2022-12-07T08:10:02;21.50;;;12.70;;
4375;SDS011;2202;50.866;12.750;2022-12-07T08:12:30;23.63;;;13.77;;
4375;SDS011;2202;50.866;12.750;2022-12-07T08:14:57;23.80;;;13.40;;
4375;SDS011;2202;50.866;12.750;2022-12-07T08:17:25;20.13;;;12.80;;
4375;SDS011;2202;50.866;12.750;2022-12-07T08:19:52;21.50;;;13.13;;
4375;SDS011;2202;50.866;12.750;2022-12-07T08:22:19;21.77;;;13.93;;
4375;SDS011;2202;50.866;12.750;2022-12-07T08:24:45;24.50;;;12.93;;
4375;SDS011;2202;50.866;12.750;2022-12-07T08:27:12;23.73;;;13.10;;
4375;SDS011;2202;50.866;12.750;2022-12-07T08:29:39;18.90;;;11.23;;
4375;SDS011;2202;50.866;12.750;2022-12-07T08:32:06;21.67;;;11.87;;
4375;SDS011;2202;50.866;12.750;2022-12-07T08:34:34;18.60;;;12.37;;
4375;SDS011;2202;50.866;12.750;2022-12-07T08:37:01;20.40;;;11.83;;
4375;SDS011;2202;50.866;12.750;2022-12-07T08:39:28;17.50;;;11.30;;
4375;SDS011;2202;50.866;12.750;2022-12-07T08:41:55;19.73;;;12.10;;
4375;SDS011;2202;50.866;12.750;2022-12-07T08:44:22;21.67;;;13.10;;
4375;SDS011;2202;50.866;12.750;2022-12-07T08:46:49;22.93;;;13.57;;
4375;SDS011;2202;50.866;12.750;2022-12-07T08:49:21;21.03;;;12.97;;
4375;SDS011;2202;50.866;12.750;2022-12-07T08:51:52;19.50;;;11.60;;
4375;SDS011;2202;50.866;12.750;2022-12-07T08:54:18;19.13;;;11.70;;
4375;SDS011;2202;50.866;12.750;2022-12-07T08:56:46;25.10;;;12.27;;
4375;SDS011;2202;50.866;12.750;2022-12-07T08:59:14;21.90;;;12.80;;
4375;SDS011;2202;50.866;12.750;2022-12-07T09:01:43;19.57;;;12.07;;
4375;SDS011;2202;50.866;12.750;2022-12-07T09:04:10;20.97;;;12.10;;
4375;SDS011;2202;50.866;12.750;2022-12-07T09:06:37;19.70;;;11.70;;
4375;SDS011;2202;50.866;12.750;2022-12-07T09:09:05;19.27;;;11.47;;
4375;SDS011;2202;50.866;12.750;2022-12-07T09:11:33;19.40;;;11.87;;
4375;SDS011;2202;50.866;12.750;2022-12-07T09:14:00;23.97;;;13.60;;
4375;SDS011;2202;50.866;12.750;2022-12-07T09:16:27;20.37;;;13.00;;
4375;SDS011;2202;50.866;12.750;2022-12-07T09:18:54;21.83;;;11.67;;
4375;SDS011;2202;50.866;12.750;2022-12-07T09:21:21;27.27;;;12.93;;
4375;SDS011;2202;50.866;12.750;2022-12-07T09:23:48;18.97;;;11.37;;
4375;SDS011;2202;50.866;12.750;2022-12-07T09:26:16;18.20;;;11.20;;
4375;SDS011;2202;50.866;12.750;2022-12-07T09:28:43;20.83;;;11.53;;
4375;SDS011;2202;50.866;12.750;2022-12-07T09:31:10;19.90;;;11.30;;
4375;SDS011;2202;50.866;12.750;2022-12-07T09:33:36;18.60;;;11.07;;
4375;SDS011;2202;50.866;12.750;2022-12-07T09:36:03;21.13;;;11.53;;
4375;SDS011;2202;50.866;12.750;2022-12-07T09:38:31;17.37;;;9.73;;
4375;SDS011;2202;50.866;12.750;2022-12-07T09:40:58;19.93;;;11.07;;
4375;SDS011;2202;50.866;12.750;2022-12-07T09:43:33;15.50;;;10.10;;
4375;SDS011;2202;50.866;12.750;2022-12-07T09:46:01;16.17;;;9.97;;
4375;SDS011;2202;50.866;12.750;2022-12-07T09:48:30;18.87;;;10.80;;
4375;SDS011;2202;50.866;12.750;2022-12-07T09:50:59;18.07;;;9.77;;
4375;SDS011;2202;50.866;12.750;2022-12-07T09:53:27;19.07;;;11.47;;
4375;SDS011;2202;50.866;12.750;2022-12-07T09:55:56;18.30;;;10.30;;
4375;SDS011;2202;50.866;12.750;2022-12-07T09:58:24;16.70;;;10.57;;
4375;SDS011;2202;50.866;12.750;2022-12-07T10:00:55;16.90;;;10.90;;
4375;SDS011;2202;50.866;12.750;2022-12-07T10:03:23;23.00;;;12.13;;
4375;SDS011;2202;50.866;12.750;2022-12-07T10:05:51;18.33;;;10.37;;
4375;SDS011;2202;50.866;12.750;2022-12-07T10:08:19;18.03;;;11.10;;
4375;SDS011;2202;50.866;12.750;2022-12-07T10:10:51;16.83;;;9.37;;
4375;SDS011;2202;50.866;12.750;2022-12-07T10:13:19;15.73;;;9.83;;
4375;SDS011;2202;50.866;12.750;2022-12-07T10:15:48;13.50;;;7.63;;
4375;SDS011;2202;50.866;12.750;2022-12-07T10:18:28;18.80;;;10.77;;
4375;SDS011;2202;50.866;12.750;2022-12-07T10:21:00;14.67;;;9.87;;
4375;SDS011;2202;50.866;12.750;2022-12-07T10:23:36;19.80;;;11.70;;
4375;SDS011;2202;50.866;12.750;2022-12-07T10:26:20;15.30;;;10.10;;
4375;SDS011;2202;50.866;12.750;2022-12-07T10:28:55;14.00;;;9.27;;
4375;SDS011;2202;50.866;12.750;2022-12-07T10:31:24;15.03;;;9.27;;
4375;SDS011;2202;50.866;12.750;2022-12-07T10:33:53;12.80;;;6.90;;
4375;SDS011;2202;50.866;12.750;2022-12-07T10:36:22;19.70;;;10.80;;
4375;SDS011;2202;50.866;12.750;2022-12-07T10:38:51;15.77;;;9.00;;
4375;SDS011;2202;50.866;12.750;2022-12-07T10:41:24;17.10;;;8.30;;
4375;SDS011;2202;50.866;12.750;2022-12-07T10:43:52;17.27;;;9.20;;
4375;SDS011;2202;50.866;12.750;2022-12-07T10:46:37;15.90;;;9.60;;
4375;SDS011;2202;50.866;12.750;2022-12-07T10:49:40;16.90;;;9.63;;
4375;SDS011;2202;50.866;12.750;2022-12-07T10:52:39;16.97;;;9.63;;
4375;SDS011;2202;50.866;12.750;2022-12-07T10:55:40;15.40;;;8.83;;
4375;SDS011;2202;50.866;12.750;2022-12-07T10:58:24;17.83;;;9.67;;
4375;SDS011;2202;50.866;12.750;2022-12-07T11:01:03;14.50;;;7.57;;
4375;SDS011;2202;50.866;12.750;2022-12-07T11:06:46;15.10;;;8.50;;
4375;SDS011;2202;50.866;12.750;2022-12-07T11:09:26;12.00;;;7.23;;
4375;SDS011;2202;50.866;12.750;2022-12-07T11:12:08;14.93;;;8.20;;
4375;SDS011;2202;50.866;12.750;2022-12-07T11:14:44;17.13;;;8.30;;
4375;SDS011;2202;50.866;12.750;2022-12-07T11:17:23;14.00;;;7.50;;
4375;SDS011;2202;50.866;12.750;2022-12-07T11:20:00;10.63;;;6.80;;
4375;SDS011;2202;50.866;12.750;2022-12-07T11:22:41;13.97;;;6.73;;
4375;SDS011;2202;50.866;12.750;2022-12-07T11:25:17;19.63;;;6.90;;
4375;SDS011;2202;50.866;12.750;2022-12-07T11:27:52;10.03;;;5.43;;
4375;SDS011;2202;50.866;12.750;2022-12-07T11:30:30;11.97;;;6.80;;
4375;SDS011;2202;50.866;12.750;2022-12-07T11:33:11;12.07;;;5.10;;
4375;SDS011;2202;50.866;12.750;2022-12-07T11:35:46;11.83;;;6.93;;
4375;SDS011;2202;50.866;12.750;2022-12-07T11:38:24;10.83;;;5.73;;
4375;SDS011;2202;50.866;12.750;2022-12-07T11:40:58;11.57;;;7.57;;
4375;SDS011;2202;50.866;12.750;2022-12-07T11:43:40;13.70;;;7.30;;
4375;SDS011;2202;50.866;12.750;2022-12-07T11:46:29;13.40;;;6.00;;
4375;SDS011;2202;50.866;12.750;2022-12-07T11:49:10;8.37;;;4.90;;
4375;SDS011;2202;50.866;12.750;2022-12-07T11:51:41;11.10;;;5.93;;
4375;SDS011;2202;50.866;12.750;2022-12-07T11:54:14;9.90;;;5.67;;
4375;SDS011;2202;50.866;12.750;2022-12-07T11:56:44;13.13;;;5.90;;
4375;SDS011;2202;50.866;12.750;2022-12-07T11:59:16;10.03;;;6.60;;
4375;SDS011;2202;50.866;12.750;2022-12-07T12:01:50;16.30;;;6.43;;
4375;SDS011;2202;50.866;12.750;2022-12-07T12:04:31;12.93;;;5.73;;
4375;SDS011;2202;50.866;12.750;2022-12-07T12:07:10;10.90;;;5.33;;
4375;SDS011;2202;50.866;12.750;2022-12-07T12:09:45;12.67;;;5.17;;
4375;SDS011;2202;50.866;12.750;2022-12-07T12:12:21;9.10;;;5.27;;
4375;SDS011;2202;50.866;12.750;2022-12-07T12:14:59;8.93;;;4.97;;
4375;SDS011;2202;50.866;12.750;2022-12-07T12:17:53;12.37;;;6.20;;
4375;SDS011;2202;50.866;12.750;2022-12-07T12:20:35;9.23;;;5.10;;
4375;SDS011;2202;50.866;12.750;2022-12-07T12:23:07;9.97;;;5.80;;
4375;SDS011;2202;50.866;12.750;2022-12-07T12:25:41;10.10;;;5.70;;
4375;SDS011;2202;50.866;12.750;2022-12-07T12:28:22;11.40;;;6.60;;
4375;SDS011;2202;50.866;12.750;2022-12-07T12:31:05;11.90;;;6.10;;
4375;SDS011;2202;50.866;12.750;2022-12-07T12:33:37;10.43;;;6.17;;
4375;SDS011;2202;50.866;12.750;2022-12-07T12:36:23;19.83;;;6.33;;
4375;SDS011;2202;50.866;12.750;2022-12-07T12:38:51;10.00;;;4.77;;
4375;SDS011;2202;50.866;12.750;2022-12-07T12:41:52;10.07;;;5.00;;
4375;SDS011;2202;50.866;12.750;2022-12-07T12:44:40;8.73;;;4.60;;
4375;SDS011;2202;50.866;12.750;2022-12-07T12:50:26;11.40;;;4.60;;
4375;SDS011;2202;50.866;12.750;2022-12-07T12:52:57;10.10;;;3.83;;
4375;SDS011;2202;50.866;12.750;2022-12-07T12:58:35;10.80;;;4.90;;
4375;SDS011;2202;50.866;12.750;2022-12-07T13:07:09;10.10;;;5.47;;
4375;SDS011;2202;50.866;12.750;2022-12-07T13:09:38;8.80;;;4.10;;
4375;SDS011;2202;50.866;12.750;2022-12-07T13:12:14;8.63;;;3.60;;
4375;SDS011;2202;50.866;12.750;2022-12-07T13:14:59;14.03;;;5.97;;
4375;SDS011;2202;50.866;12.750;2022-12-07T13:23:12;9.93;;;4.77;;
4375;SDS011;2202;50.866;12.750;2022-12-07T13:25:45;8.70;;;3.83;;
4375;SDS011;2202;50.866;12.750;2022-12-07T13:28:17;8.93;;;4.30;;
4375;SDS011;2202;50.866;12.750;2022-12-07T13:30:50;9.83;;;4.40;;
4375;SDS011;2202;50.866;12.750;2022-12-07T13:33:27;10.87;;;3.83;;
4375;SDS011;2202;50.866;12.750;2022-12-07T13:35:56;12.63;;;4.23;;
4375;SDS011;2202;50.866;12.750;2022-12-07T13:38:27;8.20;;;4.30;;
4375;SDS011;2202;50.866;12.750;2022-12-07T13:41:04;7.50;;;3.63;;
4375;SDS011;2202;50.866;12.750;2022-12-07T13:43:46;8.93;;;4.37;;
4375;SDS011;2202;50.866;12.750;2022-12-07T13:46:18;6.90;;;3.93;;
4375;SDS011;2202;50.866;12.750;2022-12-07T13:48:48;7.00;;;3.60;;
4375;SDS011;2202;50.866;12.750;2022-12-07T13:51:17;9.60;;;5.30;;
4375;SDS011;2202;50.866;12.750;2022-12-07T13:53:46;9.10;;;3.80;;
4375;SDS011;2202;50.866;12.750;2022-12-07T13:56:14;6.83;;;2.80;;
4375;SDS011;2202;50.866;12.750;2022-12-07T13:58:41;7.53;;;4.80;;
4375;SDS011;2202;50.866;12.750;2022-12-07T14:01:08;8.53;;;4.20;;
4375;SDS011;2202;50.866;12.750;2022-12-07T14:03:37;7.53;;;3.53;;
4375;SDS011;2202;50.866;12.750;2022-12-07T14:08:50;12.17;;;5.30;;
4375;SDS011;2202;50.866;12.750;2022-12-07T14:11:31;12.13;;;6.30;;
4375;SDS011;2202;50.866;12.750;2022-12-07T14:13:58;10.43;;;5.17;;
4375;SDS011;2202;50.866;12.750;2022-12-07T14:16:29;9.43;;;4.63;;
4375;SDS011;2202;50.866;12.750;2022-12-07T14:19:00;7.77;;;5.20;;
4375;SDS011;2202;50.866;12.750;2022-12-07T14:21:29;7.87;;;3.77;;
4375;SDS011;2202;50.866;12.750;2022-12-07T14:24:08;7.83;;;3.60;;
4375;SDS011;2202;50.866;12.750;2022-12-07T14:26:37;10.60;;;3.00;;
4375;SDS011;2202;50.866;12.750;2022-12-07T14:29:18;8.60;;;3.67;;
4375;SDS011;2202;50.866;12.750;2022-12-07T14:31:47;5.30;;;2.70;;
4375;SDS011;2202;50.866;12.750;2022-12-07T14:34:15;5.60;;;3.20;;
4375;SDS011;2202;50.866;12.750;2022-12-07T14:36:42;8.13;;;3.70;;
4375;SDS011;2202;50.866;12.750;2022-12-07T14:39:08;5.20;;;2.47;;
4375;SDS011;2202;50.866;12.750;2022-12-07T14:41:35;6.20;;;2.93;;
4375;SDS011;2202;50.866;12.750;2022-12-07T14:44:16;4.60;;;2.43;;
4375;SDS011;2202;50.866;12.750;2022-12-07T14:46:44;8.53;;;3.70;;
4375;SDS011;2202;50.866;12.750;2022-12-07T14:49:11;6.73;;;3.50;;
4375;SDS011;2202;50.866;12.750;2022-12-07T14:51:39;6.80;;;3.17;;
4375;SDS011;2202;50.866;12.750;2022-12-07T14:54:11;7.70;;;3.43;;
4375;SDS011;2202;50.866;12.750;2022-12-07T14:56:41;10.50;;;3.80;;
4375;SDS011;2202;50.866;12.750;2022-12-07T14:59:09;12.37;;;6.03;;
4375;SDS011;2202;50.866;12.750;2022-12-07T15:01:36;9.10;;;5.03;;
4375;SDS011;2202;50.866;12.750;2022-12-07T15:04:03;8.73;;;4.20;;
4375;SDS011;2202;50.866;12.750;2022-12-07T15:06:30;6.87;;;3.27;;
4375;SDS011;2202;50.866;12.750;2022-12-07T15:08:58;8.50;;;4.23;;
4375;SDS011;2202;50.866;12.750;2022-12-07T15:11:25;10.03;;;3.43;;
4375;SDS011;2202;50.866;12.750;2022-12-07T15:13:52;6.80;;;4.47;;
4375;SDS011;2202;50.866;12.750;2022-12-07T15:16:36;8.50;;;4.80;;
4375;SDS011;2202;50.866;12.750;2022-12-07T15:19:05;6.70;;;3.93;;
4375;SDS011;2202;50.866;12.750;2022-12-07T15:21:32;10.33;;;6.10;;
4375;SDS011;2202;50.866;12.750;2022-12-07T15:24:00;8.17;;;3.60;;
4375;SDS011;2202;50.866;12.750;2022-12-07T15:26:27;9.40;;;5.40;;
4375;SDS011;2202;50.866;12.750;2022-12-07T15:28:53;9.27;;;4.07;;